Terminal Aerodrome Forecast
Issued by NWS Mt. Holly, NJ

Home | Current Version | Previous Version | Text Only | Print | Product List | Glossary On
Versions: 1 2 3 4 5 6 7 8 9 10 11 12 13 14 15 16
778
FTUS41 KPHI 262328
TAFABE
TAF
KABE 262328Z 2700/2724 30005KT P6SM FEW060
     FM270200 VRB03KT P6SM SCT250
     FM271200 05005KT P6SM BKN250
     FM271600 15005KT P6SM FEW050 BKN200
     FM271800 26008KT P6SM SCT050 BKN150
     FM272200 22005KT P6SM FEW050 BKN250=

USA.gov is the U.S. government's official web portal to all federal, state and local government web resources and services.